Time;durP1;ratioP1;P1;durP2;ratioP2;P2;SDS_P1;SDS_P2;PMS_P1;PMS_P2;Temp;Humidity;BMP_temperature;BMP_pressure;BME280_temperature;BME280_humidity;BME280_pressure;Samples;Min_cycle;Max_cycle;Signal;HPM_P1;HPM_P2
2021/11/22 00:01:08;;;;;;;75.22;29.25;;;;;;;7.13;100.00;97529.31;4899389;29;20476;-77
2021/11/22 00:03:36;;;;;;;61.20;27.42;;;;;;;7.08;100.00;97532.06;4919417;29;20052;-76
2021/11/22 00:06:03;;;;;;;62.13;26.20;;;;;;;7.19;100.00;97536.22;4894951;29;20048;-78
2021/11/22 00:08:30;;;;;;;67.65;28.10;;;;;;;7.17;100.00;97543.78;4901476;29;20151;-78
2021/11/22 00:10:57;;;;;;;58.63;25.15;;;;;;;7.04;100.00;97541.03;4918239;29;20111;-78
2021/11/22 00:13:23;;;;;;;72.30;27.40;;;;;;;7.15;100.00;97547.88;4905075;29;20055;-77
2021/11/22 00:15:52;;;;;;;72.47;29.38;;;;;;;7.12;100.00;97549.25;4929622;29;20054;-78
2021/11/22 00:18:19;;;;;;;75.55;30.50;;;;;;;7.05;100.00;97551.50;4905175;29;20095;-78
2021/11/22 00:20:47;;;;;;;73.88;28.48;;;;;;;7.11;100.00;97554.91;4903382;29;20048;-78
2021/11/22 00:23:14;;;;;;;78.38;30.38;;;;;;;7.07;100.00;97554.69;4910614;29;20044;-78
2021/11/22 00:25:41;;;;;;;71.38;30.17;;;;;;;7.13;100.00;97556.22;4911350;29;20048;-78
2021/11/22 00:28:07;;;;;;;85.63;32.50;;;;;;;7.08;100.00;97559.00;4931052;29;20075;-78
2021/11/22 00:30:35;;;;;;;72.95;31.52;;;;;;;7.17;100.00;97553.75;4930324;29;20439;-78
2021/11/22 00:33:04;;;;;;;77.40;30.02;;;;;;;7.10;100.00;97570.25;4921077;29;20142;-77
2021/11/22 00:35:32;;;;;;;80.90;29.85;;;;;;;6.96;100.00;97563.22;4922615;29;20071;-79
2021/11/22 00:38:04;;;;;;;73.82;28.88;;;;;;;6.95;100.00;97578.56;4938750;29;20048;-77
2021/11/22 00:40:36;;;;;;;80.70;28.95;;;;;;;6.99;100.00;97574.22;4919720;29;20063;-76
2021/11/22 00:43:05;;;;;;;70.68;29.17;;;;;;;6.94;100.00;97577.00;4934286;29;20106;-77
2021/11/22 00:45:32;;;;;;;77.13;30.30;;;;;;;6.87;100.00;97568.47;4934312;29;20056;-78
2021/11/22 00:48:00;;;;;;;69.68;29.90;;;;;;;6.90;100.00;97582.16;4934696;29;20099;-77
2021/11/22 00:50:29;;;;;;;93.32;33.75;;;;;;;6.82;100.00;97579.31;4935242;29;20048;-77
2021/11/22 00:52:56;;;;;;;84.70;33.40;;;;;;;6.75;100.00;97589.66;4935312;29;20051;-78
2021/11/22 00:55:23;;;;;;;76.82;32.05;;;;;;;6.97;100.00;97589.84;4934580;29;20115;-78
2021/11/22 00:57:49;;;;;;;69.45;30.55;;;;;;;6.94;100.00;97598.53;4934827;29;20524;-78
2021/11/22 01:00:19;;;;;;;66.32;27.80;;;;;;;6.84;100.00;97594.06;4918098;29;20056;-77
2021/11/22 01:02:45;;;;;;;72.53;28.30;;;;;;;6.82;100.00;97595.47;4934848;29;20392;-76
2021/11/22 01:05:13;;;;;;;67.28;25.70;;;;;;;6.86;100.00;97591.09;4933759;29;20043;-77
2021/11/22 01:07:39;;;;;;;75.25;27.45;;;;;;;6.83;100.00;97599.75;4917688;29;20095;-78
2021/11/22 01:10:07;;;;;;;71.63;28.90;;;;;;;6.86;100.00;97602.66;4917405;29;20201;-78
2021/11/22 01:12:35;;;;;;;74.95;29.85;;;;;;;6.97;100.00;97595.22;4917109;29;20056;-78
2021/11/22 01:15:06;;;;;;;63.88;28.63;;;;;;;6.87;100.00;97598.06;4916978;29;20052;-78
2021/11/22 01:17:33;;;;;;;78.78;29.70;;;;;;;6.87;100.00;97603.44;4916613;29;20580;-77
2021/11/22 01:20:00;;;;;;;73.05;31.08;;;;;;;6.87;100.00;97608.84;4917073;29;20456;-78
2021/11/22 01:22:27;;;;;;;66.60;29.10;;;;;;;6.84;100.00;97601.34;4917237;29;20500;-77
2021/11/22 01:24:55;;;;;;;76.60;30.75;;;;;;;6.90;100.00;97603.69;4933567;29;20102;-78
2021/11/22 01:27:41;;;;;;;87.20;33.15;;;;;;;6.85;100.00;97600.25;4919637;29;20075;-79
2021/11/22 01:30:11;;;;;;;81.53;30.70;;;;;;;6.75;100.00;97601.22;4917467;29;20086;-77
2021/11/22 01:32:40;;;;;;;80.65;30.60;;;;;;;6.81;100.00;97610.78;4914379;29;20119;-77
2021/11/22 01:35:07;;;;;;;80.85;31.33;;;;;;;6.69;100.00;97612.31;4917443;29;20047;-77
2021/11/22 01:37:34;;;;;;;74.78;30.75;;;;;;;6.54;100.00;97621.41;4917363;29;20109;-76
2021/11/22 01:40:02;;;;;;;67.20;30.00;;;;;;;6.58;100.00;97617.03;4909469;29;20052;-77
2021/11/22 01:42:28;;;;;;;69.95;31.15;;;;;;;6.57;100.00;97633.47;4914759;29;20079;-76
2021/11/22 01:44:55;;;;;;;77.80;30.05;;;;;;;6.51;100.00;97630.03;4899782;29;20045;-77
2021/11/22 01:47:22;;;;;;;70.20;31.42;;;;;;;6.56;100.00;97626.47;4931520;29;20098;-77
2021/11/22 01:49:48;;;;;;;76.03;32.95;;;;;;;6.45;100.00;97625.84;4933433;29;20078;-77
2021/11/22 01:52:15;;;;;;;81.78;30.52;;;;;;;6.53;100.00;97630.53;4933137;29;20055;-77
2021/11/22 01:54:42;;;;;;;78.53;31.27;;;;;;;6.65;100.00;97636.31;4915027;29;20047;-76
2021/11/22 01:57:09;;;;;;;77.93;30.30;;;;;;;6.52;100.00;97642.41;4932603;29;20055;-77
2021/11/22 01:59:36;;;;;;;69.88;27.73;;;;;;;6.54;100.00;97636.72;4932596;29;20150;-77
2021/11/22 02:02:04;;;;;;;76.00;29.75;;;;;;;6.31;100.00;97648.31;4931895;29;20086;-76
2021/11/22 02:04:31;;;;;;;71.70;30.55;;;;;;;6.49;100.00;97644.88;4916050;29;20138;-77
2021/11/22 02:06:57;;;;;;;70.68;29.90;;;;;;;6.51;100.00;97653.44;4939609;29;20468;-77
2021/11/22 02:09:24;;;;;;;78.85;30.23;;;;;;;6.57;100.00;97654.97;4916267;29;20055;-77
2021/11/22 02:11:51;;;;;;;87.82;33.38;;;;;;;6.47;100.00;97649.72;4916316;29;20131;-76
2021/11/22 02:14:17;;;;;;;84.53;31.40;;;;;;;6.43;100.00;97664.81;4933402;29;20055;-76
2021/11/22 02:16:44;;;;;;;76.55;32.63;;;;;;;6.52;100.00;97661.22;4916579;29;20078;-77
2021/11/22 02:19:11;;;;;;;65.03;29.85;;;;;;;6.50;100.00;97658.03;4924180;29;20107;-77
2021/11/22 02:21:38;;;;;;;74.47;29.52;;;;;;;6.50;100.00;97662.63;4893602;29;20104;-77
2021/11/22 02:24:04;;;;;;;68.80;29.67;;;;;;;6.43;100.00;97668.31;4911141;29;20048;-77
2021/11/22 02:26:32;;;;;;;77.93;30.50;;;;;;;6.42;100.00;97665.94;4893459;29;20592;-77
2021/11/22 02:28:58;;;;;;;65.95;28.05;;;;;;;6.39;100.00;97682.63;4885941;29;20513;-77
2021/11/22 02:31:26;;;;;;;68.60;28.95;;;;;;;6.21;100.00;97684.97;4914091;29;20388;-78
2021/11/22 02:33:54;;;;;;;65.68;28.45;;;;;;;6.25;100.00;97688.69;4913598;29;20580;-77
2021/11/22 02:36:21;;;;;;;66.93;29.90;;;;;;;6.34;100.00;97682.69;4913913;29;20051;-77
2021/11/22 02:38:48;;;;;;;69.15;28.17;;;;;;;6.41;100.00;97683.13;4913638;29;20425;-77
2021/11/22 02:41:16;;;;;;;68.10;29.42;;;;;;;6.38;100.00;97686.41;4915142;29;20055;-79
2021/11/22 02:43:44;;;;;;;66.13;29.00;;;;;;;6.39;100.00;97682.63;4901918;29;20120;-77
2021/11/22 02:46:12;;;;;;;62.20;27.38;;;;;;;6.21;100.00;97676.13;4933507;29;20047;-78
2021/11/22 02:48:39;;;;;;;72.43;31.23;;;;;;;6.26;100.00;97689.50;4913235;29;20084;-78
2021/11/22 02:51:07;;;;;;;60.03;27.33;;;;;;;6.23;100.00;97684.69;4919854;29;20509;-77
2021/11/22 02:53:34;;;;;;;65.22;26.88;;;;;;;6.31;100.00;97680.56;4894700;29;20085;-77
2021/11/22 02:56:06;;;;;;;61.33;26.55;;;;;;;6.23;100.00;97687.38;4913027;29;20561;-78
2021/11/22 02:58:37;;;;;;;65.97;28.80;;;;;;;6.25;100.00;97687.88;4912421;29;20147;-77
2021/11/22 03:01:07;;;;;;;74.70;28.77;;;;;;;6.22;100.00;97691.13;4913874;29;20067;-77
2021/11/22 03:03:35;;;;;;;66.85;26.83;;;;;;;6.19;100.00;97692.50;4913483;29;20056;-77
2021/11/22 03:06:12;;;;;;;65.28;27.17;;;;;;;6.05;100.00;97688.09;4913913;29;20561;-77
2021/11/22 03:08:41;;;;;;;68.88;27.45;;;;;;;6.12;100.00;97702.81;4913906;29;20647;-77
2021/11/22 03:11:09;;;;;;;72.93;26.52;;;;;;;6.11;100.00;97703.09;4912380;29;20048;-76
2021/11/22 03:13:38;;;;;;;73.65;27.20;;;;;;;6.15;100.00;97696.88;4913492;29;20449;-77
2021/11/22 03:16:06;;;;;;;72.00;27.63;;;;;;;6.15;100.00;97699.56;4911738;29;20044;-77
2021/11/22 03:18:33;;;;;;;72.45;27.98;;;;;;;6.16;100.00;97695.78;4896577;29;20439;-77
2021/11/22 03:21:00;;;;;;;81.15;28.38;;;;;;;6.31;100.00;97702.88;4913336;29;20593;-76
2021/11/22 03:23:28;;;;;;;78.03;28.55;;;;;;;6.34;100.00;97706.88;4912987;29;20060;-76
2021/11/22 03:25:54;;;;;;;69.97;28.52;;;;;;;6.15;100.00;97704.94;4896880;29;20052;-76
2021/11/22 03:28:23;;;;;;;68.97;28.23;;;;;;;6.12;100.00;97713.56;4896912;29;20116;-77
2021/11/22 03:30:50;;;;;;;77.03;28.67;;;;;;;6.22;100.00;97715.31;4917616;29;20078;-77
2021/11/22 03:33:18;;;;;;;70.55;28.15;;;;;;;6.25;100.00;97722.81;4899088;29;20079;-77
2021/11/22 03:35:47;;;;;;;79.35;29.13;;;;;;;6.25;100.00;97717.44;4917812;29;20076;-77
2021/11/22 03:38:15;;;;;;;66.55;27.20;;;;;;;6.10;100.00;97721.09;4942430;23;20075;-80
2021/11/22 03:40:43;;;;;;;66.95;27.75;;;;;;;6.00;100.00;97707.78;4921281;29;20171;-79
2021/11/22 03:43:16;;;;;;;77.10;28.88;;;;;;;6.06;100.00;97719.28;4937645;29;20059;-81
2021/11/22 03:45:47;;;;;;;77.55;28.13;;;;;;;5.99;100.00;97714.22;4921858;29;20075;-80
2021/11/22 03:48:14;;;;;;;81.95;27.70;;;;;;;5.92;100.00;97726.38;4937453;29;20589;-80
2021/11/22 03:50:42;;;;;;;75.32;28.83;;;;;;;5.99;100.00;97729.53;4940578;29;20107;-81
2021/11/22 03:53:09;;;;;;;80.93;28.67;;;;;;;6.00;100.00;97734.63;4939265;29;20102;-81
2021/11/22 03:55:36;;;;;;;69.47;29.23;;;;;;;6.03;100.00;97734.09;4923362;29;20102;-81
2021/11/22 03:58:03;;;;;;;83.18;30.52;;;;;;;5.76;100.00;97727.56;4929937;29;20076;-81
2021/11/22 04:00:30;;;;;;;78.13;29.52;;;;;;;5.84;100.00;97738.50;4938692;29;20110;-82
2021/11/22 04:02:57;;;;;;;67.75;28.00;;;;;;;5.83;100.00;97742.28;4938440;29;20052;-80
2021/11/22 04:05:23;;;;;;;65.55;26.60;;;;;;;5.87;100.00;97742.53;4938448;29;20042;-80
2021/11/22 04:07:50;;;;;;;58.05;25.08;;;;;;;5.80;100.00;97745.53;4938454;29;20508;-81
2021/11/22 04:10:17;;;;;;;65.20;25.58;;;;;;;5.74;100.00;97746.66;4939251;29;20079;-80
2021/11/22 04:12:44;;;;;;;63.60;24.92;;;;;;;5.88;100.00;97762.97;4936677;29;20098;-81
2021/11/22 04:15:10;;;;;;;67.40;25.05;;;;;;;5.82;100.00;97764.84;4938167;29;20099;-81
2021/11/22 04:17:41;;;;;;;60.38;24.20;;;;;;;5.83;100.00;97755.72;4921781;29;20083;-80
2021/11/22 04:20:08;;;;;;;56.42;22.35;;;;;;;5.79;100.00;97757.34;4922008;29;20055;-80
2021/11/22 04:22:35;;;;;;;57.75;23.30;;;;;;;5.82;100.00;97770.22;4938623;29;20589;-80
2021/11/22 04:25:04;;;;;;;48.63;21.08;;;;;;;5.74;100.00;97762.75;4938641;29;20048;-81
2021/11/22 04:27:30;;;;;;;52.33;21.75;;;;;;;5.77;100.00;97774.84;4937668;29;20055;-82
2021/11/22 04:29:58;;;;;;;47.45;22.08;;;;;;;5.81;100.00;97783.94;4938559;29;20519;-82
2021/11/22 04:32:25;;;;;;;55.67;24.27;;;;;;;5.70;100.00;97785.09;4937213;29;20433;-81
2021/11/22 04:34:51;;;;;;;52.60;21.73;;;;;;;5.74;100.00;97794.19;4938396;29;20071;-81
2021/11/22 04:37:18;;;;;;;61.92;24.17;;;;;;;5.66;100.00;97803.63;4937087;29;20047;-78
2021/11/22 04:39:45;;;;;;;54.33;22.58;;;;;;;5.57;100.00;97813.38;4936776;29;20142;-82
2021/11/22 04:42:11;;;;;;;47.63;21.98;;;;;;;5.61;100.00;97807.16;4938446;29;20051;-81
2021/11/22 04:44:38;;;;;;;65.05;26.25;;;;;;;5.65;100.00;97812.78;4938875;29;20385;-81
2021/11/22 04:47:09;;;;;;;54.10;20.33;;;;;;;5.54;100.00;97808.56;4945829;29;20052;-79
2021/11/22 04:49:38;;;;;;;45.95;20.33;;;;;;;5.58;100.00;97817.66;4955415;29;20048;-82
2021/11/22 04:52:07;;;;;;;51.67;21.10;;;;;;;5.54;100.00;97817.44;4938153;29;20075;-78
2021/11/22 04:54:35;;;;;;;56.08;21.00;;;;;;;5.43;100.00;97815.06;4935555;29;20111;-79
2021/11/22 04:57:02;;;;;;;74.45;21.38;;;;;;;5.39;100.00;97828.25;4937864;29;20147;-80
2021/11/22 04:59:30;;;;;;;77.13;22.05;;;;;;;5.29;100.00;97843.59;4936769;29;20048;-80
2021/11/22 05:01:57;;;;;;;99.75;21.40;;;;;;;5.20;100.00;97840.69;4936480;29;20957;-81
2021/11/22 05:04:24;;;;;;;43.78;19.08;;;;;;;5.20;100.00;97838.00;4921010;29;20071;-79
2021/11/22 05:06:51;;;;;;;51.67;20.02;;;;;;;5.12;100.00;97848.50;4937058;29;20071;-80
2021/11/22 05:09:20;;;;;;;62.60;22.52;;;;;;;5.18;100.00;97837.47;4936485;29;20154;-80
2021/11/22 05:11:48;;;;;;;79.68;24.40;;;;;;;5.25;100.00;97845.22;4936529;29;20530;-80
2021/11/22 05:14:15;;;;;;;111.28;22.80;;;;;;;5.23;100.00;97844.69;4936905;29;20056;-80
2021/11/22 05:16:43;;;;;;;88.25;22.15;;;;;;;5.20;100.00;97853.28;4938769;29;20051;-79
2021/11/22 05:19:11;;;;;;;230.15;23.52;;;;;;;5.10;100.00;97848.78;4938300;29;20054;-80
2021/11/22 05:21:39;;;;;;;246.10;25.38;;;;;;;5.20;100.00;97858.66;4936311;29;20056;-80
2021/11/22 05:24:06;;;;;;;227.32;24.42;;;;;;;5.18;100.00;97858.13;4937421;29;20146;-80
2021/11/22 05:26:33;;;;;;;208.98;24.27;;;;;;;5.22;100.00;97861.84;4936159;29;20051;-81
2021/11/22 05:29:04;;;;;;;199.93;26.67;;;;;;;5.24;100.00;97867.78;4920203;29;20068;-80
2021/11/22 05:31:32;;;;;;;366.77;27.65;;;;;;;5.23;100.00;97863.47;4937760;29;20056;-80
2021/11/22 05:33:59;;;;;;;326.73;26.30;;;;;;;5.21;100.00;97873.69;4936393;29;20501;-78
2021/11/22 05:36:26;;;;;;;190.82;24.52;;;;;;;5.06;100.00;97873.75;4934883;29;20283;-79
2021/11/22 05:38:53;;;;;;;260.10;27.35;;;;;;;4.99;100.00;97876.69;4935239;29;20060;-79
2021/11/22 05:41:19;;;;;;;228.38;23.70;;;;;;;4.99;100.00;97882.88;4936715;29;20135;-82
2021/11/22 05:43:46;;;;;;;193.23;26.40;;;;;;;5.08;100.00;97887.69;4937128;29;20084;-81
2021/11/22 05:46:13;;;;;;;327.40;24.20;;;;;;;5.03;100.00;97886.59;4937833;29;20083;-79
2021/11/22 05:48:39;;;;;;;204.25;22.13;;;;;;;4.94;100.00;97882.09;4936583;29;20437;-81
2021/11/22 05:51:10;;;;;;;108.13;25.15;;;;;;;5.10;100.00;97888.22;4935932;29;20419;-81
2021/11/22 05:53:38;;;;;;;184.02;27.33;;;;;;;5.10;100.00;97910.47;4939219;29;20058;-79
2021/11/22 05:56:05;;;;;;;105.05;20.50;;;;;;;5.19;100.00;97898.09;4936021;29;20052;-80
2021/11/22 05:58:33;;;;;;;88.28;22.75;;;;;;;5.25;100.00;97906.94;4933837;29;20083;-80
2021/11/22 06:01:02;;;;;;;168.18;26.60;;;;;;;5.16;100.00;97906.72;4918702;29;20055;-80
2021/11/22 06:03:29;;;;;;;85.55;20.15;;;;;;;5.14;100.00;97913.41;4936691;29;20066;-80
2021/11/22 06:05:57;;;;;;;67.70;20.88;;;;;;;5.30;100.00;97917.66;4937641;29;20056;-80
2021/11/22 06:08:25;;;;;;;49.42;18.35;;;;;;;5.15;100.00;97936.50;4936171;29;20067;-80
2021/11/22 06:10:52;;;;;;;47.78;18.52;;;;;;;5.11;100.00;97930.84;4937065;29;20059;-80
2021/11/22 06:13:20;;;;;;;46.13;19.13;;;;;;;5.10;100.00;97939.19;4931620;29;20074;-79
2021/11/22 06:15:48;;;;;;;36.60;15.88;;;;;;;5.02;100.00;97930.63;4938395;29;20055;-81
2021/11/22 06:18:16;;;;;;;55.88;19.65;;;;;;;4.94;100.00;97939.22;4927385;29;20158;-80
2021/11/22 06:20:43;;;;;;;49.50;20.20;;;;;;;5.08;100.00;97941.34;4933258;29;20056;-80
2021/11/22 06:23:10;;;;;;;85.20;26.80;;;;;;;5.09;100.00;97941.06;4914512;29;20051;-81
2021/11/22 06:25:36;;;;;;;103.95;27.23;;;;;;;4.97;100.00;97941.38;4928734;29;20119;-81
2021/11/22 06:28:04;;;;;;;68.80;23.98;;;;;;;5.00;100.00;97950.75;4930461;29;20078;-81
2021/11/22 06:30:31;;;;;;;51.63;18.60;;;;;;;4.99;100.00;97949.13;4939047;29;20492;-80
2021/11/22 06:32:57;;;;;;;111.53;30.35;;;;;;;5.12;100.00;97969.22;4931113;29;20090;-82
2021/11/22 06:35:24;;;;;;;61.55;21.15;;;;;;;5.13;100.00;97968.16;4915001;29;20055;-81
2021/11/22 06:37:51;;;;;;;82.75;27.17;;;;;;;5.06;100.00;97965.75;4938057;29;20055;-81
2021/11/22 06:40:19;;;;;;;71.95;25.23;;;;;;;5.21;100.00;97973.81;4943105;29;20062;-80
2021/11/22 06:42:46;;;;;;;52.70;21.25;;;;;;;5.19;100.00;97985.88;4953274;29;20051;-80
2021/11/22 06:45:14;;;;;;;35.15;14.73;;;;;;;5.20;100.00;97982.91;4944981;29;20060;-80
2021/11/22 06:47:41;;;;;;;30.67;13.43;;;;;;;5.29;100.00;97993.91;4930633;29;20084;-80
2021/11/22 06:50:08;;;;;;;36.00;14.30;;;;;;;5.23;100.00;97984.25;4939825;29;20090;-80
2021/11/22 06:52:35;;;;;;;32.85;15.23;;;;;;;5.31;100.00;97995.25;4943181;29;20059;-81
2021/11/22 06:55:01;;;;;;;42.10;16.02;;;;;;;5.40;100.00;98001.66;4932747;29;20106;-80
2021/11/22 06:57:28;;;;;;;38.85;16.05;;;;;;;5.17;100.00;97998.75;4934303;29;20172;-80
2021/11/22 06:59:56;;;;;;;38.63;15.73;;;;;;;5.31;100.00;98005.16;4920097;29;20060;-80
2021/11/22 07:02:24;;;;;;;40.50;16.02;;;;;;;5.39;100.00;98018.03;4934557;29;20187;-81
2021/11/22 07:04:52;;;;;;;38.70;16.23;;;;;;;5.26;100.00;98019.41;4935482;29;20051;-80
2021/11/22 07:07:19;;;;;;;43.63;15.93;;;;;;;5.20;100.00;98014.31;4935755;29;20086;-80
2021/11/22 07:09:46;;;;;;;46.42;17.45;;;;;;;5.32;100.00;98012.94;4919131;29;20056;-80
2021/11/22 07:12:13;;;;;;;39.78;16.55;;;;;;;5.39;100.00;98026.91;4945328;29;20071;-81
2021/11/22 07:14:42;;;;;;;35.92;14.73;;;;;;;5.47;100.00;98017.50;4953391;29;20269;-81
2021/11/22 07:17:10;;;;;;;26.80;11.10;;;;;;;5.32;100.00;98026.38;4939757;29;20092;-80
2021/11/22 07:19:37;;;;;;;18.77;9.38;;;;;;;5.37;100.00;98030.91;4920790;29;20056;-80
2021/11/22 07:22:09;;;;;;;20.80;9.52;;;;;;;5.42;100.00;98030.94;4920727;29;20396;-78
2021/11/22 07:24:42;;;;;;;21.15;9.95;;;;;;;5.44;100.00;98042.19;4922522;29;20110;-80
2021/11/22 07:27:10;;;;;;;20.02;8.77;;;;;;;5.36;100.00;98034.69;4937862;29;20050;-80
2021/11/22 07:29:38;;;;;;;19.90;9.93;;;;;;;5.43;100.00;98043.25;4955790;29;20519;-80
2021/11/22 07:32:05;;;;;;;25.10;12.63;;;;;;;5.27;100.00;98037.09;4939377;29;20570;-79
2021/11/22 07:34:31;;;;;;;24.13;11.75;;;;;;;5.36;100.00;98045.41;4939907;29;20129;-80
2021/11/22 08:21:17;;;;;;;;;;;;;;;;;;;;;
2021/11/22 08:24:53;;;;;;;31.00;15.10;;;;;;;5.55;100.00;98114.38;4941798;29;20039;-80
2021/11/22 08:33:17;;;;;;;;;;;;;;;;;;;;;
2021/11/22 08:39:52;;;;;;;25.10;12.13;;;;;;;5.45;100.00;98154.66;4942228;28;20070;-79
2021/11/22 08:42:51;;;;;;;67.13;20.40;;;;;;;5.30;100.00;98145.81;4936733;29;20066;-77
2021/11/22 08:46:22;;;;;;;113.85;28.25;;;;;;;5.20;100.00;98138.56;4917853;29;20167;-78
2021/11/22 08:49:26;;;;;;;34.50;12.55;;;;;;;5.36;100.00;98174.28;4921331;29;20091;-78
2021/11/22 08:52:26;;;;;;;71.63;20.25;;;;;;;5.28;100.00;98159.50;4934338;29;20102;-78
2021/11/22 08:55:15;;;;;;;103.72;26.38;;;;;;;5.07;100.00;98160.56;4885338;29;20566;-78
2021/11/22 08:57:48;;;;;;;40.78;13.73;;;;;;;5.19;100.00;98171.06;4932761;29;20052;-79
2021/11/22 09:00:31;;;;;;;60.45;17.10;;;;;;;5.19;100.00;98171.84;4932991;29;20055;-79
2021/11/22 09:07:33;;;;;;;46.33;15.45;;;;;;;5.23;100.00;98182.84;4875756;29;20578;-78
2021/11/22 09:10:38;;;;;;;29.73;10.43;;;;;;;5.36;100.00;98187.69;4876488;29;20080;-78
2021/11/22 09:13:51;;;;;;;36.47;11.68;;;;;;;5.49;100.00;98187.97;4884018;29;20057;-77
2021/11/22 09:21:34;;;;;;;72.07;20.30;;;;;;;5.64;100.00;98208.66;4894570;29;20563;-78
2021/11/22 09:25:03;;;;;;;;;;;;;;;;;;;;;
2021/11/22 09:28:18;;;;;;;;;;;;;;;;;;;;;
2021/11/22 09:31:50;;;;;;;13.65;7.47;;;;;;;5.52;100.00;98211.59;4961458;28;20297;-78
2021/11/22 09:35:14;;;;;;;18.55;8.27;;;;;;;5.55;100.00;98216.44;4955693;28;20055;-78
2021/11/22 09:38:12;;;;;;;20.27;9.40;;;;;;;5.68;100.00;98226.66;4956937;28;20047;-78
2021/11/22 09:41:27;;;;;;;15.82;7.72;;;;;;;5.61;100.00;98226.13;4974506;28;20141;-78
2021/11/22 09:44:14;;;;;;;16.92;8.18;;;;;;;5.61;100.00;98226.13;4957511;28;20059;-78
2021/11/22 09:47:12;;;;;;;16.98;8.18;;;;;;;5.57;100.00;98232.28;4956720;28;20129;-78
2021/11/22 09:49:57;;;;;;;23.60;9.55;;;;;;;5.53;100.00;98233.88;4958438;28;20039;-79
2021/11/22 09:52:40;;;;;;;18.40;9.23;;;;;;;5.34;100.00;98214.00;4957036;28;20183;-78
2021/11/22 09:55:33;;;;;;;18.30;9.60;;;;;;;5.60;100.00;98243.28;4957190;28;20073;-78
2021/11/22 09:58:16;;;;;;;20.85;10.13;;;;;;;5.58;100.00;98242.75;4939046;29;20074;-78
2021/11/22 10:01:03;;;;;;;24.65;10.60;;;;;;;5.53;100.00;98232.00;4951141;29;20064;-78
2021/11/22 10:03:49;;;;;;;18.60;9.15;;;;;;;5.49;100.00;98228.25;4951709;29;20043;-79
2021/11/22 10:07:28;;;;;;;19.05;9.55;;;;;;;5.22;100.00;98219.63;4931502;29;20553;-79
2021/11/22 10:10:34;;;;;;;30.05;10.90;;;;;;;5.58;100.00;98264.25;4920540;29;20048;-78
2021/11/22 10:13:23;;;;;;;19.02;9.35;;;;;;;5.74;100.00;98251.63;4907421;29;20052;-78
2021/11/22 10:16:08;;;;;;;29.48;11.43;;;;;;;5.86;100.00;98256.78;4914523;29;20056;-78
2021/11/22 10:21:58;;;;;;;34.58;12.45;;;;;;;5.72;100.00;98224.25;4913288;29;20136;-78
2021/11/22 10:24:57;;;;;;;15.68;8.32;;;;;;;5.82;100.00;98234.16;4912720;29;20060;-78
2021/11/22 10:28:02;;;;;;;48.15;14.73;;;;;;;5.96;100.00;98238.75;4957160;23;20113;-78
2021/11/22 10:31:07;;;;;;;30.60;11.45;;;;;;;5.92;100.00;98232.31;4957536;28;20051;-79
2021/11/22 10:33:56;;;;;;;42.83;13.95;;;;;;;5.91;100.00;98254.09;4971410;28;20051;-79
2021/11/22 10:36:37;;;;;;;40.42;15.55;;;;;;;5.75;100.00;98261.31;4958699;28;20053;-79
2021/11/22 10:39:13;;;;;;;36.25;14.43;;;;;;;5.81;100.00;98262.13;4973634;28;20086;-78
2021/11/22 10:41:55;;;;;;;22.23;10.48;;;;;;;5.83;100.00;98251.91;4957638;28;20049;-80
2021/11/22 10:44:53;;;;;;;19.58;9.40;;;;;;;5.85;100.00;98242.53;4957612;28;20130;-78
2021/11/22 10:47:28;;;;;;;33.40;14.68;;;;;;;6.13;100.00;98249.22;4973533;28;20043;-78
2021/11/22 10:49:59;;;;;;;35.25;16.08;;;;;;;6.19;100.00;98242.78;4954559;28;20458;-79
2021/11/22 10:52:36;;;;;;;21.35;9.45;;;;;;;6.16;100.00;98254.06;4955821;28;20059;-78
2021/11/22 10:55:14;;;;;;;21.50;11.13;;;;;;;5.93;100.00;98238.50;4956953;28;20051;-77
2021/11/22 10:58:08;;;;;;;16.58;8.43;;;;;;;5.99;100.00;98257.03;4989018;28;20070;-78
2021/11/22 11:01:26;;;;;;;;;;;;;;;;;;;;;
2021/11/22 11:04:22;;;;;;;19.33;9.30;;;;;;;5.85;100.00;98271.28;4965512;28;20553;-78
2021/11/22 11:07:22;;;;;;;16.25;8.63;;;;;;;6.00;100.00;98261.34;4946674;28;20058;-78
2021/11/22 11:10:32;;;;;;;19.00;8.60;;;;;;;6.20;100.00;98293.56;4944633;28;20519;-78
2021/11/22 11:13:16;;;;;;;16.00;8.82;;;;;;;5.70;100.00;98261.31;4966950;28;20149;-78
2021/11/22 11:16:14;;;;;;;22.45;10.50;;;;;;;5.89;100.00;98283.09;4953500;28;20047;-79
2021/11/22 11:19:15;;;;;;;;;;;;;;;;;;;;;
2021/11/22 11:22:08;;;;;;;;;;;;;;;;;;;;;
2021/11/22 11:24:40;;;;;;;13.68;7.65;;;;;;;5.97;100.00;98272.63;4953615;28;20078;-78
2021/11/22 11:27:28;;;;;;;10.68;6.28;;;;;;;6.01;100.00;98294.41;4944004;28;20046;-78
2021/11/22 11:29:55;;;;;;;10.55;5.97;;;;;;;5.79;100.00;98278.50;4951821;28;20066;-79
2021/11/22 11:32:25;;;;;;;7.00;4.60;;;;;;;5.72;100.00;98269.91;4953430;28;20043;-78
2021/11/22 11:34:55;;;;;;;8.55;4.43;;;;;;;5.73;100.00;98297.56;4950351;28;20081;-78
2021/11/22 11:37:40;;;;;;;12.13;4.85;;;;;;;5.88;100.00;98295.75;4949504;28;20111;-78
2021/11/22 11:40:22;;;;;;;9.18;5.22;;;;;;;6.02;100.00;98307.53;4966401;28;20062;-78
2021/11/22 11:43:23;;;;;;;10.82;5.70;;;;;;;6.27;100.00;98310.22;4966301;28;20154;-78
2021/11/22 11:45:57;;;;;;;8.30;5.93;;;;;;;6.34;100.00;98303.78;4949053;28;20057;-78
2021/11/22 11:48:59;;;;;;;8.45;3.85;;;;;;;6.40;100.00;98303.47;4949898;28;20055;-79
2021/11/22 11:51:41;;;;;;;8.00;4.07;;;;;;;6.21;100.00;98297.06;4968475;28;20105;-77
2021/11/22 11:54:28;;;;;;;4.93;3.30;;;;;;;6.05;100.00;98308.91;4954246;28;20054;-79
2021/11/22 11:57:32;;;;;;;6.88;3.22;;;;;;;5.93;100.00;98281.50;4970103;28;20391;-79
2021/11/22 12:00:32;;;;;;;5.57;3.15;;;;;;;6.06;100.00;98310.53;4956006;28;20059;-79
2021/11/22 12:03:47;;;;;;;6.25;3.05;;;;;;;6.18;100.00;98324.47;4972068;28;20058;-79
2021/11/22 12:07:00;;;;;;;;;;;;;;;;;;;;;
2021/11/22 12:09:52;;;;;;;5.57;2.95;;;;;;;5.82;100.00;98301.34;4973747;28;20493;-79
2021/11/22 12:13:18;;;;;;;7.85;3.47;;;;;;;5.96;100.00;98318.59;4958926;28;20434;-79
2021/11/22 12:16:20;;;;;;;;;;;;;;;;;;;;;
2021/11/22 12:18:51;;;;;;;10.20;4.07;;;;;;;6.33;100.00;98294.06;4958018;28;20051;-80
2021/11/22 12:24:47;;;;;;;11.48;4.55;;;;;;;6.71;100.00;98313.09;4977849;28;20049;-78
2021/11/22 12:27:33;;;;;;;12.88;4.60;;;;;;;6.31;100.00;98315.88;4962686;28;20062;-79
2021/11/22 12:30:31;;;;;;;7.63;2.42;;;;;;;6.42;100.00;98330.94;4960416;28;20549;-79
2021/11/22 12:33:39;;;;;;;7.05;2.50;;;;;;;6.09;100.00;98337.66;4976739;28;20043;-78
2021/11/22 12:36:10;;;;;;;;;;;;;;;6.20;100.00;98330.38;4978687;28;20507;-80
2021/11/22 12:39:13;;;;;;;4.03;0.95;;;;;;;6.15;100.00;98319.63;4977716;28;19922;-80
2021/11/22 12:41:56;;;;;;;6.10;3.00;;;;;;;6.61;100.00;98323.06;4963428;28;20068;-79
2021/11/22 12:44:36;;;;;;;9.40;2.85;;;;;;;6.67;100.00;98327.38;4966121;28;20098;-80
2021/11/22 12:47:11;;;;;;;3.95;2.00;;;;;;;6.52;100.00;98330.91;4961069;28;20053;-79
2021/11/22 12:49:46;;;;;;;5.43;1.45;;;;;;;6.39;100.00;98309.97;4977883;28;20087;-79
2021/11/22 12:52:26;;;;;;;4.07;2.38;;;;;;;6.18;100.00;98327.16;4959221;28;20082;-79
2021/11/22 12:55:10;;;;;;;2.10;1.27;;;;;;;6.04;100.00;98336.88;4959167;28;20047;-80
2021/11/22 12:57:41;;;;;;;6.40;1.98;;;;;;;5.97;100.00;98355.09;4962313;28;20383;-79
2021/11/22 13:00:19;;;;;;;3.55;1.58;;;;;;;5.91;100.00;98353.50;4994887;28;20044;-80
2021/11/22 13:02:51;;;;;;;3.17;1.40;;;;;;;5.75;100.00;98349.97;4990173;28;20063;-79
2021/11/22 13:05:46;;;;;;;8.07;3.15;;;;;;;5.81;100.00;98350.78;4943018;29;20055;-79
2021/11/22 13:08:24;;;;;;;;;;;;;;;5.86;100.00;98351.59;4959271;28;20051;-79
2021/11/22 13:11:01;;;;;;;5.10;2.10;;;;;;;5.66;100.00;98357.72;4958646;29;19962;-80
2021/11/22 13:16:33;;;;;;;4.05;2.00;;;;;;;5.87;100.00;98331.72;4970742;28;20050;-79
2021/11/22 13:19:11;;;;;;;3.60;2.05;;;;;;;5.99;100.00;98336.81;4986272;28;20093;-79
2021/11/22 13:22:16;;;;;;;4.65;1.90;;;;;;;5.88;100.00;98349.47;4970072;28;20062;-79
2021/11/22 13:25:40;;;;;;;11.65;3.92;;;;;;;6.02;100.00;98339.81;4965686;28;20059;-78